sensor_id;sensor_type;location;lat;lon;timestamp;P1;durP1;ratioP1;P2;durP2;ratioP2
39256;SDS011;67272;48.066;11.038;2023-04-06T00:01:06;7.70;;;5.07;;
39256;SDS011;67272;48.066;11.038;2023-04-06T00:03:33;5.83;;;5.17;;
39256;SDS011;67272;48.066;11.038;2023-04-06T00:06:03;7.03;;;5.40;;
39256;SDS011;67272;48.066;11.038;2023-04-06T00:08:32;6.10;;;5.47;;
39256;SDS011;67272;48.066;11.038;2023-04-06T00:10:59;5.50;;;4.90;;
39256;SDS011;67272;48.066;11.038;2023-04-06T00:13:25;6.90;;;4.80;;
39256;SDS011;67272;48.066;11.038;2023-04-06T00:16:04;8.67;;;5.23;;
39256;SDS011;67272;48.066;11.038;2023-04-06T00:18:31;5.97;;;5.10;;
39256;SDS011;67272;48.066;11.038;2023-04-06T00:20:57;5.53;;;4.90;;
39256;SDS011;67272;48.066;11.038;2023-04-06T00:23:24;6.50;;;5.23;;
39256;SDS011;67272;48.066;11.038;2023-04-06T00:25:50;5.87;;;5.30;;
39256;SDS011;67272;48.066;11.038;2023-04-06T00:28:17;6.40;;;5.17;;
39256;SDS011;67272;48.066;11.038;2023-04-06T00:30:46;6.73;;;4.87;;
39256;SDS011;67272;48.066;11.038;2023-04-06T00:33:13;6.77;;;5.97;;
39256;SDS011;67272;48.066;11.038;2023-04-06T00:35:39;6.27;;;4.57;;
39256;SDS011;67272;48.066;11.038;2023-04-06T00:38:05;6.90;;;5.87;;
39256;SDS011;67272;48.066;11.038;2023-04-06T00:40:32;6.40;;;4.90;;
39256;SDS011;67272;48.066;11.038;2023-04-06T00:43:00;7.57;;;5.03;;
39256;SDS011;67272;48.066;11.038;2023-04-06T00:45:26;6.03;;;4.73;;
39256;SDS011;67272;48.066;11.038;2023-04-06T00:47:52;6.40;;;5.10;;
39256;SDS011;67272;48.066;11.038;2023-04-06T00:50:22;5.83;;;4.80;;
39256;SDS011;67272;48.066;11.038;2023-04-06T00:52:48;6.17;;;4.83;;
39256;SDS011;67272;48.066;11.038;2023-04-06T00:55:17;5.87;;;4.40;;
39256;SDS011;67272;48.066;11.038;2023-04-06T00:57:48;6.43;;;4.77;;
39256;SDS011;67272;48.066;11.038;2023-04-06T01:00:15;6.80;;;4.57;;
39256;SDS011;67272;48.066;11.038;2023-04-06T01:02:50;8.23;;;5.10;;
39256;SDS011;67272;48.066;11.038;2023-04-06T01:05:19;6.33;;;4.90;;
39256;SDS011;67272;48.066;11.038;2023-04-06T01:07:55;5.80;;;4.80;;
39256;SDS011;67272;48.066;11.038;2023-04-06T01:10:36;7.77;;;5.40;;
39256;SDS011;67272;48.066;11.038;2023-04-06T01:13:17;6.80;;;5.47;;
39256;SDS011;67272;48.066;11.038;2023-04-06T01:15:48;5.67;;;4.60;;
39256;SDS011;67272;48.066;11.038;2023-04-06T01:18:28;5.10;;;4.50;;
39256;SDS011;67272;48.066;11.038;2023-04-06T01:21:08;5.93;;;4.93;;
39256;SDS011;67272;48.066;11.038;2023-04-06T01:23:47;6.33;;;5.10;;
39256;SDS011;67272;48.066;11.038;2023-04-06T01:26:20;6.87;;;5.27;;
39256;SDS011;67272;48.066;11.038;2023-04-06T01:28:46;5.97;;;4.70;;
39256;SDS011;67272;48.066;11.038;2023-04-06T01:31:27;6.13;;;4.80;;
39256;SDS011;67272;48.066;11.038;2023-04-06T01:33:56;6.33;;;4.87;;
39256;SDS011;67272;48.066;11.038;2023-04-06T01:36:25;6.10;;;4.63;;
39256;SDS011;67272;48.066;11.038;2023-04-06T01:38:59;6.60;;;4.90;;
39256;SDS011;67272;48.066;11.038;2023-04-06T01:41:32;6.80;;;5.00;;
39256;SDS011;67272;48.066;11.038;2023-04-06T01:43:58;7.43;;;5.20;;
39256;SDS011;67272;48.066;11.038;2023-04-06T01:46:29;6.87;;;5.00;;
39256;SDS011;67272;48.066;11.038;2023-04-06T01:48:57;6.37;;;5.23;;
39256;SDS011;67272;48.066;11.038;2023-04-06T01:51:35;5.93;;;4.97;;
39256;SDS011;67272;48.066;11.038;2023-04-06T01:54:10;6.73;;;5.13;;
39256;SDS011;67272;48.066;11.038;2023-04-06T01:57:05;9.47;;;5.57;;
39256;SDS011;67272;48.066;11.038;2023-04-06T01:59:52;6.13;;;4.67;;
39256;SDS011;67272;48.066;11.038;2023-04-06T02:02:28;8.00;;;5.50;;
39256;SDS011;67272;48.066;11.038;2023-04-06T02:05:01;6.90;;;4.90;;
39256;SDS011;67272;48.066;11.038;2023-04-06T02:07:28;7.77;;;4.77;;
39256;SDS011;67272;48.066;11.038;2023-04-06T02:09:54;5.87;;;5.07;;
39256;SDS011;67272;48.066;11.038;2023-04-06T02:12:26;6.23;;;5.23;;
39256;SDS011;67272;48.066;11.038;2023-04-06T02:14:53;7.70;;;5.37;;
39256;SDS011;67272;48.066;11.038;2023-04-06T02:17:20;6.40;;;4.83;;
39256;SDS011;67272;48.066;11.038;2023-04-06T02:19:49;5.83;;;5.00;;
39256;SDS011;67272;48.066;11.038;2023-04-06T02:22:18;7.13;;;5.37;;
39256;SDS011;67272;48.066;11.038;2023-04-06T02:24:45;5.13;;;4.63;;
39256;SDS011;67272;48.066;11.038;2023-04-06T02:27:12;6.73;;;4.83;;
39256;SDS011;67272;48.066;11.038;2023-04-06T02:29:38;5.70;;;5.00;;
39256;SDS011;67272;48.066;11.038;2023-04-06T02:32:05;6.43;;;5.70;;
39256;SDS011;67272;48.066;11.038;2023-04-06T02:34:31;6.50;;;5.47;;
39256;SDS011;67272;48.066;11.038;2023-04-06T02:36:58;6.83;;;5.20;;
39256;SDS011;67272;48.066;11.038;2023-04-06T02:39:31;6.53;;;5.47;;
39256;SDS011;67272;48.066;11.038;2023-04-06T02:42:07;7.43;;;5.70;;
39256;SDS011;67272;48.066;11.038;2023-04-06T02:44:36;6.10;;;5.20;;
39256;SDS011;67272;48.066;11.038;2023-04-06T02:47:03;6.23;;;5.30;;
39256;SDS011;67272;48.066;11.038;2023-04-06T02:49:30;6.57;;;5.53;;
39256;SDS011;67272;48.066;11.038;2023-04-06T02:51:58;6.80;;;5.10;;
39256;SDS011;67272;48.066;11.038;2023-04-06T02:54:28;6.03;;;5.43;;
39256;SDS011;67272;48.066;11.038;2023-04-06T02:56:57;5.87;;;5.27;;
39256;SDS011;67272;48.066;11.038;2023-04-06T02:59:32;5.90;;;4.70;;
39256;SDS011;67272;48.066;11.038;2023-04-06T03:02:27;5.87;;;4.97;;
39256;SDS011;67272;48.066;11.038;2023-04-06T03:05:02;6.67;;;5.20;;
39256;SDS011;67272;48.066;11.038;2023-04-06T03:07:33;6.50;;;5.07;;
39256;SDS011;67272;48.066;11.038;2023-04-06T03:10:06;6.27;;;4.67;;
39256;SDS011;67272;48.066;11.038;2023-04-06T03:12:36;6.47;;;5.43;;
39256;SDS011;67272;48.066;11.038;2023-04-06T03:15:20;5.80;;;4.70;;
39256;SDS011;67272;48.066;11.038;2023-04-06T03:18:01;6.47;;;5.03;;
39256;SDS011;67272;48.066;11.038;2023-04-06T03:20:36;6.03;;;4.90;;
39256;SDS011;67272;48.066;11.038;2023-04-06T03:23:08;6.27;;;5.63;;
39256;SDS011;67272;48.066;11.038;2023-04-06T03:25:39;6.87;;;5.10;;
39256;SDS011;67272;48.066;11.038;2023-04-06T03:28:08;7.00;;;5.27;;
39256;SDS011;67272;48.066;11.038;2023-04-06T03:30:41;5.10;;;4.57;;
39256;SDS011;67272;48.066;11.038;2023-04-06T03:33:08;11.93;;;5.60;;
39256;SDS011;67272;48.066;11.038;2023-04-06T03:35:51;6.10;;;4.77;;
39256;SDS011;67272;48.066;11.038;2023-04-06T03:38:17;6.73;;;5.27;;
39256;SDS011;67272;48.066;11.038;2023-04-06T03:40:44;7.07;;;5.60;;
39256;SDS011;67272;48.066;11.038;2023-04-06T03:43:10;7.17;;;5.67;;
39256;SDS011;67272;48.066;11.038;2023-04-06T03:45:38;6.60;;;5.07;;
39256;SDS011;67272;48.066;11.038;2023-04-06T03:48:05;9.15;;;7.38;;
39256;SDS011;67272;48.066;11.038;2023-04-06T03:50:34;6.50;;;5.63;;
39256;SDS011;67272;48.066;11.038;2023-04-06T03:53:01;8.00;;;6.40;;
39256;SDS011;67272;48.066;11.038;2023-04-06T03:55:28;7.17;;;6.47;;
39256;SDS011;67272;48.066;11.038;2023-04-06T03:58:01;6.40;;;5.70;;
39256;SDS011;67272;48.066;11.038;2023-04-06T04:00:30;7.67;;;5.97;;
39256;SDS011;67272;48.066;11.038;2023-04-06T04:02:58;7.13;;;5.80;;
39256;SDS011;67272;48.066;11.038;2023-04-06T04:05:28;7.67;;;6.20;;
39256;SDS011;67272;48.066;11.038;2023-04-06T04:07:58;7.03;;;5.43;;
39256;SDS011;67272;48.066;11.038;2023-04-06T04:10:26;7.77;;;6.73;;
39256;SDS011;67272;48.066;11.038;2023-04-06T04:12:52;6.77;;;5.97;;
39256;SDS011;67272;48.066;11.038;2023-04-06T04:15:18;7.73;;;5.30;;
39256;SDS011;67272;48.066;11.038;2023-04-06T04:17:46;8.30;;;5.77;;
39256;SDS011;67272;48.066;11.038;2023-04-06T04:20:15;5.60;;;4.77;;
39256;SDS011;67272;48.066;11.038;2023-04-06T04:22:41;6.60;;;5.53;;
39256;SDS011;67272;48.066;11.038;2023-04-06T04:25:12;9.17;;;5.43;;
39256;SDS011;67272;48.066;11.038;2023-04-06T04:27:44;8.80;;;6.03;;
39256;SDS011;67272;48.066;11.038;2023-04-06T04:30:11;10.07;;;6.20;;
39256;SDS011;67272;48.066;11.038;2023-04-06T04:32:41;7.87;;;5.93;;
39256;SDS011;67272;48.066;11.038;2023-04-06T04:35:08;10.73;;;6.27;;
39256;SDS011;67272;48.066;11.038;2023-04-06T04:37:38;6.00;;;5.40;;
39256;SDS011;67272;48.066;11.038;2023-04-06T04:40:05;8.47;;;5.60;;
39256;SDS011;67272;48.066;11.038;2023-04-06T04:42:42;7.30;;;5.93;;
39256;SDS011;67272;48.066;11.038;2023-04-06T04:45:14;8.40;;;6.50;;
39256;SDS011;67272;48.066;11.038;2023-04-06T04:47:41;10.27;;;7.00;;
39256;SDS011;67272;48.066;11.038;2023-04-06T04:50:08;6.50;;;5.90;;
39256;SDS011;67272;48.066;11.038;2023-04-06T04:52:47;6.90;;;6.00;;
39256;SDS011;67272;48.066;11.038;2023-04-06T04:55:18;11.27;;;6.30;;
39256;SDS011;67272;48.066;11.038;2023-04-06T04:57:49;9.23;;;6.73;;
39256;SDS011;67272;48.066;11.038;2023-04-06T05:00:22;12.27;;;6.43;;
39256;SDS011;67272;48.066;11.038;2023-04-06T05:02:53;9.17;;;6.13;;
39256;SDS011;67272;48.066;11.038;2023-04-06T05:05:24;11.57;;;6.87;;
39256;SDS011;67272;48.066;11.038;2023-04-06T05:07:50;8.10;;;6.27;;
39256;SDS011;67272;48.066;11.038;2023-04-06T05:10:26;10.17;;;6.83;;
39256;SDS011;67272;48.066;11.038;2023-04-06T05:12:56;9.63;;;6.63;;
39256;SDS011;67272;48.066;11.038;2023-04-06T05:15:26;9.97;;;7.23;;
39256;SDS011;67272;48.066;11.038;2023-04-06T05:17:56;11.23;;;7.27;;
39256;SDS011;67272;48.066;11.038;2023-04-06T05:20:29;7.87;;;6.33;;
39256;SDS011;67272;48.066;11.038;2023-04-06T05:22:55;9.73;;;6.77;;
39256;SDS011;67272;48.066;11.038;2023-04-06T05:25:22;10.30;;;6.37;;
39256;SDS011;67272;48.066;11.038;2023-04-06T05:27:51;6.43;;;5.83;;
39256;SDS011;67272;48.066;11.038;2023-04-06T05:30:28;7.40;;;5.53;;
39256;SDS011;67272;48.066;11.038;2023-04-06T05:32:57;6.13;;;5.53;;
39256;SDS011;67272;48.066;11.038;2023-04-06T05:35:30;9.23;;;5.33;;
39256;SDS011;67272;48.066;11.038;2023-04-06T05:38:01;6.17;;;5.23;;
39256;SDS011;67272;48.066;11.038;2023-04-06T05:40:27;6.60;;;5.40;;
39256;SDS011;67272;48.066;11.038;2023-04-06T05:42:53;7.57;;;5.90;;
39256;SDS011;67272;48.066;11.038;2023-04-06T05:45:23;7.63;;;5.60;;
39256;SDS011;67272;48.066;11.038;2023-04-06T05:47:54;8.57;;;5.97;;
39256;SDS011;67272;48.066;11.038;2023-04-06T05:50:29;5.90;;;5.30;;
39256;SDS011;67272;48.066;11.038;2023-04-06T05:52:57;5.60;;;4.93;;
39256;SDS011;67272;48.066;11.038;2023-04-06T05:55:32;6.93;;;5.27;;
39256;SDS011;67272;48.066;11.038;2023-04-06T05:58:11;5.10;;;4.17;;
39256;SDS011;67272;48.066;11.038;2023-04-06T06:00:38;5.93;;;4.93;;
39256;SDS011;67272;48.066;11.038;2023-04-06T06:03:06;7.43;;;4.87;;
39256;SDS011;67272;48.066;11.038;2023-04-06T06:05:34;5.97;;;4.97;;
39256;SDS011;67272;48.066;11.038;2023-04-06T06:08:11;5.63;;;5.03;;
39256;SDS011;67272;48.066;11.038;2023-04-06T06:10:38;6.17;;;5.23;;
39256;SDS011;67272;48.066;11.038;2023-04-06T06:13:06;6.20;;;5.27;;
39256;SDS011;67272;48.066;11.038;2023-04-06T06:15:32;6.37;;;5.33;;
39256;SDS011;67272;48.066;11.038;2023-04-06T06:18:01;5.57;;;5.07;;
39256;SDS011;67272;48.066;11.038;2023-04-06T06:20:28;5.93;;;5.37;;
39256;SDS011;67272;48.066;11.038;2023-04-06T06:22:58;5.90;;;5.30;;
39256;SDS011;67272;48.066;11.038;2023-04-06T06:25:25;8.23;;;5.87;;
39256;SDS011;67272;48.066;11.038;2023-04-06T06:27:54;7.77;;;5.90;;
39256;SDS011;67272;48.066;11.038;2023-04-06T06:30:21;6.37;;;5.73;;
39256;SDS011;67272;48.066;11.038;2023-04-06T06:32:48;7.50;;;5.37;;
39256;SDS011;67272;48.066;11.038;2023-04-06T06:35:14;6.10;;;5.27;;
39256;SDS011;67272;48.066;11.038;2023-04-06T06:37:41;6.90;;;6.00;;
39256;SDS011;67272;48.066;11.038;2023-04-06T06:40:11;7.20;;;5.30;;
39256;SDS011;67272;48.066;11.038;2023-04-06T06:42:39;6.03;;;5.30;;
39256;SDS011;67272;48.066;11.038;2023-04-06T06:45:13;5.67;;;5.07;;
39256;SDS011;67272;48.066;11.038;2023-04-06T06:47:40;5.80;;;5.20;;
39256;SDS011;67272;48.066;11.038;2023-04-06T06:50:07;6.23;;;5.20;;
39256;SDS011;67272;48.066;11.038;2023-04-06T06:52:33;5.10;;;4.60;;
39256;SDS011;67272;48.066;11.038;2023-04-06T06:54:59;6.70;;;5.93;;
39256;SDS011;67272;48.066;11.038;2023-04-06T06:57:25;6.17;;;5.10;;
39256;SDS011;67272;48.066;11.038;2023-04-06T06:59:52;5.37;;;4.67;;
39256;SDS011;67272;48.066;11.038;2023-04-06T07:02:20;5.97;;;5.47;;
39256;SDS011;67272;48.066;11.038;2023-04-06T07:04:52;6.60;;;5.77;;
39256;SDS011;67272;48.066;11.038;2023-04-06T07:07:18;6.30;;;5.70;;
39256;SDS011;67272;48.066;11.038;2023-04-06T07:09:45;5.90;;;5.30;;
39256;SDS011;67272;48.066;11.038;2023-04-06T07:12:14;5.67;;;5.17;;
39256;SDS011;67272;48.066;11.038;2023-04-06T07:14:41;6.27;;;5.33;;
39256;SDS011;67272;48.066;11.038;2023-04-06T07:17:08;6.20;;;5.40;;
39256;SDS011;67272;48.066;11.038;2023-04-06T07:19:35;6.50;;;5.37;;
39256;SDS011;67272;48.066;11.038;2023-04-06T07:22:01;6.53;;;5.30;;
39256;SDS011;67272;48.066;11.038;2023-04-06T07:24:29;6.20;;;5.60;;
39256;SDS011;67272;48.066;11.038;2023-04-06T07:26:55;6.30;;;5.80;;
39256;SDS011;67272;48.066;11.038;2023-04-06T07:29:21;5.70;;;5.20;;
39256;SDS011;67272;48.066;11.038;2023-04-06T07:31:48;5.77;;;5.27;;
39256;SDS011;67272;48.066;11.038;2023-04-06T07:34:15;5.97;;;5.33;;
39256;SDS011;67272;48.066;11.038;2023-04-06T07:36:41;5.95;;;5.35;;
39256;SDS011;67272;48.066;11.038;2023-04-06T07:39:08;6.72;;;5.75;;
39256;SDS011;67272;48.066;11.038;2023-04-06T07:41:35;5.43;;;4.93;;
39256;SDS011;67272;48.066;11.038;2023-04-06T07:44:01;5.90;;;5.32;;
39256;SDS011;67272;48.066;11.038;2023-04-06T07:46:28;5.70;;;5.20;;
39256;SDS011;67272;48.066;11.038;2023-04-06T07:48:56;6.10;;;5.50;;
39256;SDS011;67272;48.066;11.038;2023-04-06T07:51:22;6.22;;;5.40;;
39256;SDS011;67272;48.066;11.038;2023-04-06T07:53:50;6.00;;;5.50;;
39256;SDS011;67272;48.066;11.038;2023-04-06T07:56:16;5.30;;;4.90;;
39256;SDS011;67272;48.066;11.038;2023-04-06T07:58:43;5.70;;;5.18;;
39256;SDS011;67272;48.066;11.038;2023-04-06T08:01:09;5.50;;;5.10;;
39256;SDS011;67272;48.066;11.038;2023-04-06T08:03:35;6.18;;;5.57;;
39256;SDS011;67272;48.066;11.038;2023-04-06T08:06:02;6.13;;;5.60;;
39256;SDS011;67272;48.066;11.038;2023-04-06T08:08:28;5.97;;;5.47;;
39256;SDS011;67272;48.066;11.038;2023-04-06T08:10:55;5.90;;;5.50;;
39256;SDS011;67272;48.066;11.038;2023-04-06T08:13:22;5.90;;;5.40;;
39256;SDS011;67272;48.066;11.038;2023-04-06T08:15:48;5.60;;;5.15;;
39256;SDS011;67272;48.066;11.038;2023-04-06T08:18:14;5.80;;;5.30;;
39256;SDS011;67272;48.066;11.038;2023-04-06T08:20:41;6.15;;;5.65;;
39256;SDS011;67272;48.066;11.038;2023-04-06T08:23:07;5.90;;;5.40;;
39256;SDS011;67272;48.066;11.038;2023-04-06T08:25:35;6.05;;;5.45;;
39256;SDS011;67272;48.066;11.038;2023-04-06T08:28:01;5.47;;;5.05;;
39256;SDS011;67272;48.066;11.038;2023-04-06T08:30:28;6.22;;;5.72;;
39256;SDS011;67272;48.066;11.038;2023-04-06T08:32:54;5.95;;;5.45;;
39256;SDS011;67272;48.066;11.038;2023-04-06T08:35:20;5.68;;;5.28;;
39256;SDS011;67272;48.066;11.038;2023-04-06T08:37:46;7.15;;;5.63;;
39256;SDS011;67272;48.066;11.038;2023-04-06T08:40:13;5.95;;;5.35;;
39256;SDS011;67272;48.066;11.038;2023-04-06T08:42:40;5.70;;;5.25;;
39256;SDS011;67272;48.066;11.038;2023-04-06T08:45:07;5.90;;;5.40;;
39256;SDS011;67272;48.066;11.038;2023-04-06T08:47:34;5.78;;;5.28;;
39256;SDS011;67272;48.066;11.038;2023-04-06T08:50:02;5.85;;;5.25;;
39256;SDS011;67272;48.066;11.038;2023-04-06T08:52:29;6.22;;;5.72;;
39256;SDS011;67272;48.066;11.038;2023-04-06T08:54:58;5.45;;;4.95;;
39256;SDS011;67272;48.066;11.038;2023-04-06T08:57:24;6.05;;;5.55;;
39256;SDS011;67272;48.066;11.038;2023-04-06T08:59:51;6.00;;;5.50;;
39256;SDS011;67272;48.066;11.038;2023-04-06T09:02:18;6.40;;;5.90;;
39256;SDS011;67272;48.066;11.038;2023-04-06T09:04:45;6.38;;;5.88;;
39256;SDS011;67272;48.066;11.038;2023-04-06T09:07:12;6.22;;;5.63;;
39256;SDS011;67272;48.066;11.038;2023-04-06T09:09:38;6.18;;;5.57;;
39256;SDS011;67272;48.066;11.038;2023-04-06T09:12:08;6.28;;;5.68;;
39256;SDS011;67272;48.066;11.038;2023-04-06T09:14:37;6.07;;;5.22;;
39256;SDS011;67272;48.066;11.038;2023-04-06T09:17:05;6.22;;;5.03;;
39256;SDS011;67272;48.066;11.038;2023-04-06T09:19:31;6.00;;;5.47;;
39256;SDS011;67272;48.066;11.038;2023-04-06T09:22:06;6.40;;;5.90;;
39256;SDS011;67272;48.066;11.038;2023-04-06T09:24:40;6.03;;;5.53;;
39256;SDS011;67272;48.066;11.038;2023-04-06T15:09:04;5.03;;;4.50;;
39256;SDS011;67272;48.066;11.038;2023-04-06T15:11:31;4.40;;;4.05;;
39256;SDS011;67272;48.066;11.038;2023-04-06T15:13:57;5.05;;;4.65;;
39256;SDS011;67272;48.066;11.038;2023-04-06T15:16:23;4.65;;;4.35;;
39256;SDS011;67272;48.066;11.038;2023-04-06T15:18:52;5.25;;;4.85;;
39256;SDS011;67272;48.066;11.038;2023-04-06T15:21:18;5.78;;;5.28;;
39256;SDS011;67272;48.066;11.038;2023-04-06T15:23:51;5.10;;;4.43;;
39256;SDS011;67272;48.066;11.038;2023-04-06T15:26:23;5.05;;;4.65;;
39256;SDS011;67272;48.066;11.038;2023-04-06T15:28:51;4.90;;;4.50;;
39256;SDS011;67272;48.066;11.038;2023-04-06T15:31:18;4.38;;;4.07;;
39256;SDS011;67272;48.066;11.038;2023-04-06T15:33:48;4.65;;;4.22;;
39256;SDS011;67272;48.066;11.038;2023-04-06T15:36:24;4.38;;;4.07;;
39256;SDS011;67272;48.066;11.038;2023-04-06T15:38:51;4.20;;;3.90;;
39256;SDS011;67272;48.066;11.038;2023-04-06T15:41:18;4.10;;;3.80;;
39256;SDS011;67272;48.066;11.038;2023-04-06T15:43:45;4.60;;;4.20;;
39256;SDS011;67272;48.066;11.038;2023-04-06T15:46:11;4.55;;;4.18;;
39256;SDS011;67272;48.066;11.038;2023-04-06T15:48:37;4.22;;;3.92;;
39256;SDS011;67272;48.066;11.038;2023-04-06T15:51:03;4.28;;;3.97;;
39256;SDS011;67272;48.066;11.038;2023-04-06T15:53:30;4.13;;;3.83;;
39256;SDS011;67272;48.066;11.038;2023-04-06T15:55:59;4.07;;;3.78;;
39256;SDS011;67272;48.066;11.038;2023-04-06T15:58:26;4.50;;;4.20;;
39256;SDS011;67272;48.066;11.038;2023-04-06T16:00:52;4.30;;;4.00;;
39256;SDS011;67272;48.066;11.038;2023-04-06T16:03:19;4.85;;;4.45;;
39256;SDS011;67272;48.066;11.038;2023-04-06T16:05:45;4.70;;;4.30;;
39256;SDS011;67272;48.066;11.038;2023-04-06T16:08:11;5.22;;;4.72;;
39256;SDS011;67272;48.066;11.038;2023-04-06T16:10:41;5.15;;;4.70;;
39256;SDS011;67272;48.066;11.038;2023-04-06T16:13:07;4.70;;;4.30;;
39256;SDS011;67272;48.066;11.038;2023-04-06T16:15:34;4.97;;;4.47;;
39256;SDS011;67272;48.066;11.038;2023-04-06T16:18:00;4.82;;;4.43;;
39256;SDS011;67272;48.066;11.038;2023-04-06T16:20:28;4.13;;;3.83;;
39256;SDS011;67272;48.066;11.038;2023-04-06T16:22:57;4.63;;;4.20;;
39256;SDS011;67272;48.066;11.038;2023-04-06T16:25:24;4.95;;;4.45;;
39256;SDS011;67272;48.066;11.038;2023-04-06T16:27:50;4.38;;;3.92;;
39256;SDS011;67272;48.066;11.038;2023-04-06T16:30:16;4.35;;;3.95;;
39256;SDS011;67272;48.066;11.038;2023-04-06T16:32:42;4.30;;;4.00;;
39256;SDS011;67272;48.066;11.038;2023-04-06T16:35:10;4.65;;;4.20;;
39256;SDS011;67272;48.066;11.038;2023-04-06T16:37:36;4.57;;;4.18;;
39256;SDS011;67272;48.066;11.038;2023-04-06T16:40:03;5.30;;;3.70;;
39256;SDS011;67272;48.066;11.038;2023-04-06T16:42:29;4.70;;;4.20;;
39256;SDS011;67272;48.066;11.038;2023-04-06T16:44:55;4.80;;;4.28;;
39256;SDS011;67272;48.066;11.038;2023-04-06T16:47:24;4.78;;;4.38;;
39256;SDS011;67272;48.066;11.038;2023-04-06T16:49:51;4.32;;;4.03;;
39256;SDS011;67272;48.066;11.038;2023-04-06T16:52:17;4.47;;;4.07;;
39256;SDS011;67272;48.066;11.038;2023-04-06T16:54:43;4.57;;;4.18;;
39256;SDS011;67272;48.066;11.038;2023-04-06T16:57:13;4.68;;;4.28;;
39256;SDS011;67272;48.066;11.038;2023-04-06T16:59:39;4.75;;;4.35;;
39256;SDS011;67272;48.066;11.038;2023-04-06T17:02:05;4.88;;;4.38;;
39256;SDS011;67272;48.066;11.038;2023-04-06T17:04:31;5.10;;;4.30;;
39256;SDS011;67272;48.066;11.038;2023-04-06T17:07:01;4.80;;;4.32;;
39256;SDS011;67272;48.066;11.038;2023-04-06T17:09:27;4.65;;;4.25;;
39256;SDS011;67272;48.066;11.038;2023-04-06T17:11:55;5.18;;;4.78;;
39256;SDS011;67272;48.066;11.038;2023-04-06T17:14:22;5.43;;;4.80;;
39256;SDS011;67272;48.066;11.038;2023-04-06T17:16:48;5.07;;;4.57;;
39256;SDS011;67272;48.066;11.038;2023-04-06T17:19:14;4.87;;;4.47;;
39256;SDS011;67272;48.066;11.038;2023-04-06T17:21:40;5.10;;;4.60;;
39256;SDS011;67272;48.066;11.038;2023-04-06T17:24:06;5.37;;;4.63;;
39256;SDS011;67272;48.066;11.038;2023-04-06T17:26:36;5.20;;;4.70;;
39256;SDS011;67272;48.066;11.038;2023-04-06T17:29:02;6.40;;;5.80;;
39256;SDS011;67272;48.066;11.038;2023-04-06T17:31:28;7.07;;;5.37;;
39256;SDS011;67272;48.066;11.038;2023-04-06T17:33:54;5.83;;;4.80;;
39256;SDS011;67272;48.066;11.038;2023-04-06T17:36:21;5.40;;;4.90;;
39256;SDS011;67272;48.066;11.038;2023-04-06T17:38:48;5.27;;;4.77;;
39256;SDS011;67272;48.066;11.038;2023-04-06T17:41:14;4.80;;;4.40;;
39256;SDS011;67272;48.066;11.038;2023-04-06T17:43:41;5.50;;;4.80;;
39256;SDS011;67272;48.066;11.038;2023-04-06T17:46:07;6.00;;;4.87;;
39256;SDS011;67272;48.066;11.038;2023-04-06T17:48:36;27.07;;;6.73;;
39256;SDS011;67272;48.066;11.038;2023-04-06T17:51:14;5.27;;;4.73;;
39256;SDS011;67272;48.066;11.038;2023-04-06T17:53:46;4.70;;;4.30;;
39256;SDS011;67272;48.066;11.038;2023-04-06T17:56:13;4.97;;;4.33;;
39256;SDS011;67272;48.066;11.038;2023-04-06T17:58:42;6.43;;;4.53;;
39256;SDS011;67272;48.066;11.038;2023-04-06T18:01:12;5.13;;;4.13;;
39256;SDS011;67272;48.066;11.038;2023-04-06T18:03:39;5.03;;;4.47;;
39256;SDS011;67272;48.066;11.038;2023-04-06T18:06:09;5.47;;;4.50;;
39256;SDS011;67272;48.066;11.038;2023-04-06T18:08:35;4.50;;;4.10;;
39256;SDS011;67272;48.066;11.038;2023-04-06T18:11:01;5.17;;;4.40;;
39256;SDS011;67272;48.066;11.038;2023-04-06T18:13:28;4.60;;;4.20;;
39256;SDS011;67272;48.066;11.038;2023-04-06T18:16:00;4.70;;;4.10;;
39256;SDS011;67272;48.066;11.038;2023-04-06T18:18:27;4.93;;;4.43;;
39256;SDS011;67272;48.066;11.038;2023-04-06T18:20:54;5.70;;;5.10;;
39256;SDS011;67272;48.066;11.038;2023-04-06T18:23:20;4.10;;;3.63;;
39256;SDS011;67272;48.066;11.038;2023-04-06T18:25:49;4.90;;;4.37;;
39256;SDS011;67272;48.066;11.038;2023-04-06T18:28:16;4.63;;;3.90;;
39256;SDS011;67272;48.066;11.038;2023-04-06T18:30:42;4.33;;;3.93;;
39256;SDS011;67272;48.066;11.038;2023-04-06T18:33:11;6.03;;;4.43;;
39256;SDS011;67272;48.066;11.038;2023-04-06T18:35:38;5.73;;;4.40;;
39256;SDS011;67272;48.066;11.038;2023-04-06T18:38:07;4.93;;;3.70;;
39256;SDS011;67272;48.066;11.038;2023-04-06T18:40:37;4.43;;;3.97;;
39256;SDS011;67272;48.066;11.038;2023-04-06T18:43:07;5.20;;;4.70;;
39256;SDS011;67272;48.066;11.038;2023-04-06T18:45:37;5.50;;;5.00;;
39256;SDS011;67272;48.066;11.038;2023-04-06T18:48:03;9.10;;;5.40;;
39256;SDS011;67272;48.066;11.038;2023-04-06T18:50:32;6.10;;;4.50;;
39256;SDS011;67272;48.066;11.038;2023-04-06T18:52:59;4.57;;;4.13;;
39256;SDS011;67272;48.066;11.038;2023-04-06T18:55:31;6.83;;;4.77;;
39256;SDS011;67272;48.066;11.038;2023-04-06T18:57:58;6.60;;;5.23;;
39256;SDS011;67272;48.066;11.038;2023-04-06T19:00:24;4.67;;;4.17;;
39256;SDS011;67272;48.066;11.038;2023-04-06T19:02:51;5.83;;;4.60;;
39256;SDS011;67272;48.066;11.038;2023-04-06T19:05:23;6.17;;;4.30;;
39256;SDS011;67272;48.066;11.038;2023-04-06T19:08:02;5.23;;;4.70;;
39256;SDS011;67272;48.066;11.038;2023-04-06T19:10:37;6.63;;;4.80;;
39256;SDS011;67272;48.066;11.038;2023-04-06T19:13:04;9.67;;;6.63;;
39256;SDS011;67272;48.066;11.038;2023-04-06T19:15:30;8.40;;;5.90;;
39256;SDS011;67272;48.066;11.038;2023-04-06T19:17:57;5.77;;;4.80;;
39256;SDS011;67272;48.066;11.038;2023-04-06T19:20:23;6.40;;;3.90;;
39256;SDS011;67272;48.066;11.038;2023-04-06T19:22:49;4.63;;;3.93;;
39256;SDS011;67272;48.066;11.038;2023-04-06T19:25:16;5.90;;;4.63;;
39256;SDS011;67272;48.066;11.038;2023-04-06T19:27:42;4.73;;;3.93;;
39256;SDS011;67272;48.066;11.038;2023-04-06T19:30:09;6.63;;;4.10;;
39256;SDS011;67272;48.066;11.038;2023-04-06T19:32:36;4.70;;;3.93;;
39256;SDS011;67272;48.066;11.038;2023-04-06T19:35:04;4.93;;;4.17;;
39256;SDS011;67272;48.066;11.038;2023-04-06T19:37:34;6.83;;;4.10;;
39256;SDS011;67272;48.066;11.038;2023-04-06T19:40:02;8.07;;;4.53;;
39256;SDS011;67272;48.066;11.038;2023-04-06T19:42:34;4.40;;;3.80;;
39256;SDS011;67272;48.066;11.038;2023-04-06T19:45:00;6.73;;;3.93;;
39256;SDS011;67272;48.066;11.038;2023-04-06T19:47:27;4.50;;;3.80;;
39256;SDS011;67272;48.066;11.038;2023-04-06T19:49:53;4.30;;;3.77;;
39256;SDS011;67272;48.066;11.038;2023-04-06T19:52:19;5.73;;;4.60;;
39256;SDS011;67272;48.066;11.038;2023-04-06T19:54:50;6.10;;;4.53;;
39256;SDS011;67272;48.066;11.038;2023-04-06T19:57:16;6.20;;;4.23;;
39256;SDS011;67272;48.066;11.038;2023-04-06T19:59:42;4.83;;;4.20;;
39256;SDS011;67272;48.066;11.038;2023-04-06T20:02:08;5.63;;;4.70;;
39256;SDS011;67272;48.066;11.038;2023-04-06T20:04:35;4.43;;;3.90;;
39256;SDS011;67272;48.066;11.038;2023-04-06T20:07:01;4.50;;;3.83;;
39256;SDS011;67272;48.066;11.038;2023-04-06T20:09:27;5.20;;;4.07;;
39256;SDS011;67272;48.066;11.038;2023-04-06T20:11:53;5.13;;;3.73;;
39256;SDS011;67272;48.066;11.038;2023-04-06T20:14:20;4.60;;;4.20;;
39256;SDS011;67272;48.066;11.038;2023-04-06T20:16:46;5.67;;;4.47;;
39256;SDS011;67272;48.066;11.038;2023-04-06T20:19:12;4.10;;;3.67;;
39256;SDS011;67272;48.066;11.038;2023-04-06T20:21:38;4.50;;;4.00;;
39256;SDS011;67272;48.066;11.038;2023-04-06T20:24:05;5.13;;;4.00;;